createdAt,value
2022-10-26T00:01:16.041Z,13.63
2022-10-26T00:06:22.462Z,13.54
2022-10-26T00:11:24.474Z,13.47
2022-10-26T00:16:27.620Z,13.45
2022-10-26T00:21:29.040Z,13.49
2022-10-26T00:26:30.500Z,13.50
2022-10-26T00:31:32.426Z,13.51
2022-10-26T00:36:33.824Z,13.46
2022-10-26T00:41:35.229Z,13.42
2022-10-26T00:46:38.425Z,13.51
2022-10-26T00:51:44.310Z,13.45
2022-10-26T00:56:49.412Z,13.40
2022-10-26T01:01:51.832Z,13.41
2022-10-26T01:06:53.317Z,13.27
2022-10-26T01:11:54.895Z,13.24
2022-10-26T01:17:15.135Z,13.21
2022-10-26T01:22:22.218Z,13.13
2022-10-26T01:27:41.194Z,12.95
2022-10-26T01:32:51.371Z,12.81
2022-10-26T01:37:58.729Z,12.75
2022-10-26T01:43:04.513Z,12.67
2022-10-26T01:48:09.357Z,12.72
2022-10-26T01:53:15.123Z,12.78
2022-10-26T01:58:44.599Z,12.60
2022-10-26T02:09:54.588Z,12.44
2022-10-26T02:15:06.511Z,12.39
2022-10-26T02:20:13.300Z,12.21
2022-10-26T02:25:20.740Z,12.38
2022-10-26T02:30:24.076Z,12.78
2022-10-26T02:35:30.470Z,13.02
2022-10-26T02:40:32.718Z,13.22
2022-10-26T02:45:46.261Z,13.34
2022-10-26T02:51:03.725Z,13.39
2022-10-26T02:56:16.693Z,13.35
2022-10-26T03:01:18.350Z,13.42
2022-10-26T03:06:24.152Z,13.41
2022-10-26T03:11:25.553Z,13.52
2022-10-26T03:16:27.259Z,13.53
2022-10-26T03:21:28.664Z,13.53
2022-10-26T03:26:30.055Z,13.55
2022-10-26T03:31:31.482Z,13.55
2022-10-26T03:36:32.887Z,13.59
2022-10-26T03:41:34.287Z,13.56
2022-10-26T03:46:35.680Z,13.54
2022-10-26T03:51:37.115Z,13.54
2022-10-26T03:56:38.522Z,13.62
2022-10-26T04:01:40.070Z,13.63
2022-10-26T04:06:41.697Z,13.71
2022-10-26T04:11:43.155Z,13.73
2022-10-26T04:16:44.552Z,13.74
2022-10-26T04:21:45.947Z,13.72
2022-10-26T04:26:47.354Z,13.66
2022-10-26T04:31:48.746Z,13.67
2022-10-26T04:36:50.134Z,13.72
2022-10-26T04:41:51.582Z,13.66
2022-10-26T04:46:52.982Z,13.70
2022-10-26T04:51:54.357Z,13.69
2022-10-26T04:56:55.732Z,13.67
2022-10-26T05:01:57.369Z,13.62
2022-10-26T05:06:58.873Z,13.61
2022-10-26T05:12:00.260Z,13.62
2022-10-26T05:17:01.730Z,13.77
2022-10-26T05:22:03.342Z,13.89
2022-10-26T05:27:04.793Z,14.03
2022-10-26T05:32:06.191Z,14.05
2022-10-26T05:37:07.588Z,14.10
2022-10-26T05:42:09.241Z,14.08
2022-10-26T05:47:10.662Z,14.01
2022-10-26T05:52:12.058Z,13.98
2022-10-26T05:57:13.914Z,13.89
2022-10-26T06:02:33.065Z,13.91
2022-10-26T06:07:34.778Z,13.90
2022-10-26T06:12:36.470Z,13.89
2022-10-26T06:17:55.168Z,13.84
2022-10-26T06:23:15.060Z,13.86
2022-10-26T06:28:35.081Z,14.01
2022-10-26T06:33:36.517Z,14.10
2022-10-26T06:38:39.866Z,14.18
2022-10-26T06:43:41.807Z,14.33
2022-10-26T06:48:59.462Z,14.43
2022-10-26T06:54:14.029Z,14.50
2022-10-26T06:59:25.448Z,14.48
2022-10-26T07:04:26.859Z,14.45
2022-10-26T07:09:28.265Z,14.36
2022-10-26T07:14:29.675Z,14.27
2022-10-26T07:19:31.399Z,14.22
2022-10-26T07:24:32.833Z,14.26
2022-10-26T07:29:34.254Z,14.27
2022-10-26T07:34:35.655Z,14.28
2022-10-26T07:39:37.054Z,14.33
2022-10-26T07:44:38.453Z,14.39
2022-10-26T07:49:40.077Z,14.42
2022-10-26T07:54:41.470Z,14.51
2022-10-26T07:59:42.858Z,14.56
2022-10-26T08:04:44.289Z,14.69
2022-10-26T08:09:45.684Z,14.89
2022-10-26T08:14:47.344Z,15.10
2022-10-26T08:19:48.792Z,15.11
2022-10-26T08:24:50.197Z,15.15
2022-10-26T08:29:51.656Z,15.20
2022-10-26T08:34:53.035Z,15.25
2022-10-26T08:39:55.893Z,15.31
2022-10-26T08:45:12.581Z,15.39
2022-10-26T08:50:27.395Z,15.45
2022-10-26T09:00:51.621Z,15.52
2022-10-26T09:06:08.854Z,15.53
2022-10-26T09:11:13.291Z,15.50
2022-10-26T09:16:31.508Z,15.67
2022-10-26T09:21:59.983Z,15.79
2022-10-26T09:27:21.591Z,16.13
2022-10-26T09:32:41.203Z,16.60
2022-10-26T09:37:55.128Z,17.07
2022-10-26T09:43:26.514Z,17.47
2022-10-26T09:48:36.672Z,17.62
2022-10-26T09:53:38.059Z,17.63
2022-10-26T09:59:02.169Z,17.56
2022-10-26T10:04:15.398Z,17.52
2022-10-26T10:09:19.238Z,17.42
2022-10-26T10:14:55.402Z,17.42
2022-10-26T10:20:07.601Z,17.67
2022-10-26T10:25:23.561Z,18.63
2022-10-26T10:30:33.517Z,19.94
2022-10-26T10:35:35.517Z,21.86
2022-10-26T10:40:37.034Z,24.09
2022-10-26T10:45:38.843Z,24.76
2022-10-26T10:51:05.260Z,24.27
2022-10-26T10:56:25.123Z,23.63
2022-10-26T11:01:32.416Z,23.67
2022-10-26T11:06:37.614Z,25.36
2022-10-26T11:11:45.561Z,27.24
2022-10-26T11:16:51.675Z,29.36
2022-10-26T11:21:56.507Z,31.03
2022-10-26T11:27:05.039Z,32.21
2022-10-26T11:32:16.561Z,32.77
2022-10-26T11:37:28.740Z,32.98
2022-10-26T11:42:32.912Z,33.25
2022-10-26T11:47:42.584Z,33.41
2022-10-26T11:53:03.250Z,34.40
2022-10-26T11:58:05.327Z,34.66
2022-10-26T12:03:13.874Z,34.91
2022-10-26T12:08:28.005Z,35.15
2022-10-26T12:13:36.060Z,35.25
2022-10-26T12:19:01.025Z,34.96
2022-10-26T12:24:22.348Z,35.25
2022-10-26T12:29:29.232Z,33.85
2022-10-26T12:34:30.591Z,32.44
2022-10-26T12:39:35.990Z,32.71
2022-10-26T12:44:43.474Z,33.52
2022-10-26T12:50:06.503Z,32.96
2022-10-26T12:55:29.145Z,31.76
2022-10-26T13:00:33.282Z,32.21
2022-10-26T13:05:59.439Z,32.23
2022-10-26T13:11:16.218Z,32.41
2022-10-26T13:16:17.775Z,32.29
2022-10-26T13:21:22.175Z,31.30
2022-10-26T13:26:26.022Z,30.51
2022-10-26T13:31:30.358Z,29.53
2022-10-26T13:36:50.494Z,28.71
2022-10-26T13:41:54.633Z,28.23
2022-10-26T13:47:03.714Z,27.52
2022-10-26T13:52:12.356Z,27.06
2022-10-26T13:57:22.713Z,26.77
2022-10-26T14:02:28.751Z,26.49
2022-10-26T14:07:44.755Z,26.31
2022-10-26T14:12:46.309Z,26.06
2022-10-26T14:17:51.366Z,25.73
2022-10-26T14:22:53.053Z,25.51
2022-10-26T14:27:54.486Z,25.24
2022-10-26T14:32:56.600Z,24.97
2022-10-26T14:38:02.793Z,24.74
2022-10-26T14:43:05.590Z,24.54
2022-10-26T14:48:07.495Z,24.32
2022-10-26T14:53:15.605Z,23.97
2022-10-26T15:03:35.051Z,23.48
2022-10-26T15:08:52.652Z,23.22
2022-10-26T15:14:00.230Z,22.95
2022-10-26T15:19:09.561Z,22.64
2022-10-26T15:24:30.170Z,22.43
2022-10-26T15:29:38.525Z,22.27
2022-10-26T15:34:40.002Z,21.98
2022-10-26T15:39:41.390Z,21.83
2022-10-26T15:44:42.802Z,21.47
2022-10-26T15:49:44.225Z,21.26
2022-10-26T15:54:46.194Z,20.99
2022-10-26T15:59:47.586Z,20.73
2022-10-26T16:04:48.978Z,20.48
2022-10-26T16:09:50.458Z,20.21
2022-10-26T16:15:05.164Z,19.79
2022-10-26T16:20:12.612Z,19.47
2022-10-26T16:25:22.226Z,19.27
2022-10-26T16:30:25.914Z,18.92
2022-10-26T16:35:29.637Z,18.66
2022-10-26T16:40:31.054Z,18.48
2022-10-26T16:45:32.440Z,18.46
2022-10-26T16:50:36.309Z,18.23
2022-10-26T16:55:38.034Z,17.98
2022-10-26T17:00:39.464Z,17.94
2022-10-26T17:05:40.848Z,17.92
2022-10-26T17:10:42.233Z,17.89
2022-10-26T17:15:43.644Z,17.61
2022-10-26T17:20:51.366Z,17.46
2022-10-26T17:25:52.864Z,17.21
2022-10-26T17:31:07.594Z,17.21
2022-10-26T17:36:10.565Z,17.23
2022-10-26T17:41:14.199Z,17.19
2022-10-26T17:46:21.201Z,17.19
2022-10-26T17:51:22.709Z,17.12
2022-10-26T17:56:29.709Z,17.12
2022-10-26T18:01:31.995Z,17.09
2022-10-26T18:06:34.006Z,16.89
2022-10-26T18:11:35.743Z,16.84
2022-10-26T18:16:37.118Z,16.81
2022-10-26T18:21:38.512Z,16.76
2022-10-26T18:26:39.935Z,16.61
2022-10-26T18:31:43.601Z,16.66
2022-10-26T18:36:44.998Z,16.64
2022-10-26T18:41:46.397Z,16.62
2022-10-26T18:46:47.800Z,16.60
2022-10-26T18:51:49.197Z,16.62
2022-10-26T18:56:50.602Z,16.61
2022-10-26T19:01:52.448Z,16.51
2022-10-26T19:06:53.938Z,16.41
2022-10-26T19:11:57.958Z,16.33
2022-10-26T19:17:01.639Z,16.17
2022-10-26T19:22:03.491Z,16.00
2022-10-26T19:27:05.022Z,15.88
2022-10-26T19:32:06.445Z,15.78
2022-10-26T19:37:07.875Z,15.61
2022-10-26T19:42:09.259Z,15.53
2022-10-26T19:47:10.683Z,15.55
2022-10-26T19:52:12.087Z,15.54
2022-10-26T19:57:13.533Z,15.48
2022-10-26T20:02:14.931Z,15.41
2022-10-26T20:07:16.368Z,15.40
2022-10-26T20:12:17.751Z,15.33
2022-10-26T20:17:19.134Z,15.24
2022-10-26T20:22:20.524Z,14.99
2022-10-26T20:27:21.930Z,14.85
2022-10-26T20:32:24.609Z,14.83
2022-10-26T20:37:26.462Z,14.81
2022-10-26T20:42:28.510Z,14.80
2022-10-26T20:47:30.833Z,14.78
2022-10-26T20:52:50.798Z,14.82
2022-10-26T20:57:58.484Z,14.83
2022-10-26T21:02:59.854Z,14.78
2022-10-26T21:08:01.260Z,14.69
2022-10-26T21:13:02.772Z,14.59
2022-10-26T21:18:04.332Z,14.47
2022-10-26T21:23:05.702Z,14.40
2022-10-26T21:28:07.086Z,14.30
2022-10-26T21:33:08.465Z,14.19
2022-10-26T21:38:09.859Z,14.08
2022-10-26T21:43:11.264Z,13.97
2022-10-26T21:48:12.701Z,13.86
2022-10-26T21:53:14.081Z,13.72
2022-10-26T21:58:18.804Z,13.68
2022-10-26T22:03:20.223Z,13.72
2022-10-26T22:08:21.728Z,13.82
2022-10-26T22:13:23.337Z,13.68
2022-10-26T22:18:24.945Z,13.56
2022-10-26T22:23:26.490Z,13.55
2022-10-26T22:28:27.887Z,13.44
2022-10-26T22:33:29.322Z,13.25
2022-10-26T22:38:30.795Z,13.15
2022-10-26T22:43:32.433Z,12.99
2022-10-26T22:48:34.914Z,12.99
2022-10-26T22:53:36.943Z,12.98
2022-10-26T22:58:39.139Z,12.99
2022-10-26T23:03:40.851Z,12.86
2022-10-26T23:08:42.414Z,12.81
2022-10-26T23:13:44.230Z,12.73
2022-10-26T23:18:46.646Z,12.63
2022-10-26T23:23:48.318Z,12.60
2022-10-26T23:28:50.279Z,12.46
2022-10-26T23:33:53.243Z,12.47
2022-10-26T23:38:54.645Z,12.46
2022-10-26T23:43:56.032Z,12.49
2022-10-26T23:48:57.422Z,12.44
2022-10-26T23:53:58.806Z,12.45
2022-10-26T23:59:00.306Z,12.37
